sensor_id;sensor_type;location;lat;lon;timestamp;pressure;altitude;pressure_sealevel;temperature;humidity
10464;BME280;5279;42.048;24.638;2022-12-29T00:01:02;98569.81;;;4.02;100.00
10464;BME280;5279;42.048;24.638;2022-12-29T00:03:29;98562.72;;;4.04;100.00
10464;BME280;5279;42.048;24.638;2022-12-29T00:05:56;98562.72;;;4.04;100.00
10464;BME280;5279;42.048;24.638;2022-12-29T00:08:31;98562.09;;;3.66;100.00
10464;BME280;5279;42.048;24.638;2022-12-29T00:11:15;98569.06;;;3.83;100.00
10464;BME280;5279;42.048;24.638;2022-12-29T00:13:56;98575.69;;;3.90;100.00
10464;BME280;5279;42.048;24.638;2022-12-29T00:16:44;98575.22;;;3.99;100.00
10464;BME280;5279;42.048;24.638;2022-12-29T00:19:12;98577.06;;;3.80;100.00
10464;BME280;5279;42.048;24.638;2022-12-29T00:21:54;98577.63;;;3.86;100.00
10464;BME280;5279;42.048;24.638;2022-12-29T00:24:38;98594.13;;;3.89;100.00
10464;BME280;5279;42.048;24.638;2022-12-29T00:27:26;98588.66;;;3.76;100.00
10464;BME280;5279;42.048;24.638;2022-12-29T00:30:13;98588.00;;;3.55;100.00
10464;BME280;5279;42.048;24.638;2022-12-29T00:32:57;98597.91;;;3.66;100.00
10464;BME280;5279;42.048;24.638;2022-12-29T00:35:45;98601.28;;;3.68;100.00
10464;BME280;5279;42.048;24.638;2022-12-29T00:38:14;98601.16;;;3.71;100.00
10464;BME280;5279;42.048;24.638;2022-12-29T00:41:05;98599.63;;;3.67;100.00
10464;BME280;5279;42.048;24.638;2022-12-29T00:43:51;98597.84;;;3.84;100.00
10464;BME280;5279;42.048;24.638;2022-12-29T00:46:40;98613.94;;;3.94;100.00
10464;BME280;5279;42.048;24.638;2022-12-29T00:49:17;98607.16;;;3.90;100.00
10464;BME280;5279;42.048;24.638;2022-12-29T00:52:05;98618.41;;;4.09;100.00
10464;BME280;5279;42.048;24.638;2022-12-29T00:54:41;98618.34;;;3.94;100.00
10464;BME280;5279;42.048;24.638;2022-12-29T00:57:18;98610.91;;;4.02;100.00
10464;BME280;5279;42.048;24.638;2022-12-29T00:59:54;98614.53;;;3.99;100.00
10464;BME280;5279;42.048;24.638;2022-12-29T01:02:29;98619.28;;;4.25;100.00
10464;BME280;5279;42.048;24.638;2022-12-29T01:04:56;98612.19;;;4.27;100.00
10464;BME280;5279;42.048;24.638;2022-12-29T01:07:23;98617.63;;;4.40;100.00
10464;BME280;5279;42.048;24.638;2022-12-29T01:09:51;98610.13;;;4.50;100.00
10464;BME280;5279;42.048;24.638;2022-12-29T01:12:37;98617.00;;;4.68;100.00
10464;BME280;5279;42.048;24.638;2022-12-29T01:15:11;98599.53;;;4.67;100.00
10464;BME280;5279;42.048;24.638;2022-12-29T01:17:43;98608.34;;;4.81;100.00
10464;BME280;5279;42.048;24.638;2022-12-29T01:20:25;98603.28;;;4.94;100.00
10464;BME280;5279;42.048;24.638;2022-12-29T01:23:02;98592.44;;;5.00;100.00
10464;BME280;5279;42.048;24.638;2022-12-29T01:25:42;98605.63;;;5.14;100.00
10464;BME280;5279;42.048;24.638;2022-12-29T01:28:16;98603.59;;;5.19;100.00
10464;BME280;5279;42.048;24.638;2022-12-29T01:31:02;98591.88;;;5.25;100.00
10464;BME280;5279;42.048;24.638;2022-12-29T01:33:34;98606.44;;;5.30;100.00
10464;BME280;5279;42.048;24.638;2022-12-29T01:36:03;98587.50;;;5.25;100.00
10464;BME280;5279;42.048;24.638;2022-12-29T01:38:31;98580.69;;;5.21;100.00
10464;BME280;5279;42.048;24.638;2022-12-29T01:41:00;98575.09;;;5.27;100.00
10464;BME280;5279;42.048;24.638;2022-12-29T01:43:39;98574.00;;;5.31;100.00
10464;BME280;5279;42.048;24.638;2022-12-29T01:46:16;98568.81;;;5.30;100.00
10464;BME280;5279;42.048;24.638;2022-12-29T01:48:47;98573.41;;;5.26;100.00
10464;BME280;5279;42.048;24.638;2022-12-29T01:51:17;98571.91;;;5.07;100.00
10464;BME280;5279;42.048;24.638;2022-12-29T01:53:45;98574.97;;;4.99;100.00
10464;BME280;5279;42.048;24.638;2022-12-29T01:56:16;98574.91;;;4.85;100.00
10464;BME280;5279;42.048;24.638;2022-12-29T01:58:47;98559.91;;;4.87;100.00
10464;BME280;5279;42.048;24.638;2022-12-29T02:01:19;98547.38;;;4.61;100.00
10464;BME280;5279;42.048;24.638;2022-12-29T02:03:50;98561.09;;;4.66;100.00
10464;BME280;5279;42.048;24.638;2022-12-29T02:06:22;98557.28;;;4.56;100.00
10464;BME280;5279;42.048;24.638;2022-12-29T02:08:54;98549.66;;;4.35;100.00
10464;BME280;5279;42.048;24.638;2022-12-29T02:11:23;98558.97;;;4.25;100.00
10464;BME280;5279;42.048;24.638;2022-12-29T02:13:52;98543.09;;;4.11;100.00
10464;BME280;5279;42.048;24.638;2022-12-29T02:16:32;98538.53;;;4.15;100.00
10464;BME280;5279;42.048;24.638;2022-12-29T02:22:04;98535.06;;;4.14;100.00
10464;BME280;5279;42.048;24.638;2022-12-29T02:25:09;98541.59;;;4.07;100.00
10464;BME280;5279;42.048;24.638;2022-12-29T02:27:54;98524.63;;;3.97;100.00
10464;BME280;5279;42.048;24.638;2022-12-29T02:30:43;98528.88;;;4.00;100.00
10464;BME280;5279;42.048;24.638;2022-12-29T02:33:24;98535.78;;;3.85;100.00
10464;BME280;5279;42.048;24.638;2022-12-29T02:36:04;98517.81;;;3.77;100.00
10464;BME280;5279;42.048;24.638;2022-12-29T02:38:53;98533.94;;;3.70;100.00
10464;BME280;5279;42.048;24.638;2022-12-29T02:41:32;98519.16;;;3.52;100.00
10464;BME280;5279;42.048;24.638;2022-12-29T02:44:06;98524.16;;;3.56;100.00
10464;BME280;5279;42.048;24.638;2022-12-29T02:46:44;98518.44;;;3.65;100.00
10464;BME280;5279;42.048;24.638;2022-12-29T02:49:18;98513.91;;;3.69;100.00
10464;BME280;5279;42.048;24.638;2022-12-29T02:51:51;98519.22;;;3.67;100.00
10464;BME280;5279;42.048;24.638;2022-12-29T02:54:21;98520.94;;;3.51;100.00
10464;BME280;5279;42.048;24.638;2022-12-29T02:57:10;98503.75;;;3.28;100.00
10464;BME280;5279;42.048;24.638;2022-12-29T02:59:39;98529.94;;;3.28;100.00
10464;BME280;5279;42.048;24.638;2022-12-29T03:02:30;98516.66;;;3.16;100.00
10464;BME280;5279;42.048;24.638;2022-12-29T03:05:22;98530.56;;;3.16;100.00
10464;BME280;5279;42.048;24.638;2022-12-29T03:07:59;98519.78;;;3.22;100.00
10464;BME280;5279;42.048;24.638;2022-12-29T03:10:37;98509.31;;;3.22;100.00
10464;BME280;5279;42.048;24.638;2022-12-29T03:13:17;98515.00;;;3.13;100.00
10464;BME280;5279;42.048;24.638;2022-12-29T03:16:14;98509.75;;;3.13;100.00
10464;BME280;5279;42.048;24.638;2022-12-29T03:18:57;98514.69;;;3.19;100.00
10464;BME280;5279;42.048;24.638;2022-12-29T03:21:43;98520.78;;;3.20;100.00
10464;BME280;5279;42.048;24.638;2022-12-29T03:24:32;98514.09;;;3.14;100.00
10464;BME280;5279;42.048;24.638;2022-12-29T03:27:16;98514.69;;;3.19;100.00
10464;BME280;5279;42.048;24.638;2022-12-29T03:29:51;98506.09;;;3.17;100.00
10464;BME280;5279;42.048;24.638;2022-12-29T03:32:21;98510.63;;;3.14;100.00
10464;BME280;5279;42.048;24.638;2022-12-29T03:34:54;98503.00;;;3.09;100.00
10464;BME280;5279;42.048;24.638;2022-12-29T03:37:25;98496.06;;;3.08;100.00
10464;BME280;5279;42.048;24.638;2022-12-29T03:39:55;98498.16;;;3.19;100.00
10464;BME280;5279;42.048;24.638;2022-12-29T03:42:26;98491.53;;;3.12;100.00
10464;BME280;5279;42.048;24.638;2022-12-29T03:44:56;98488.75;;;3.32;100.00
10464;BME280;5279;42.048;24.638;2022-12-29T03:47:24;98492.38;;;3.29;100.00
10464;BME280;5279;42.048;24.638;2022-12-29T03:49:56;98489.44;;;3.36;100.00
10464;BME280;5279;42.048;24.638;2022-12-29T03:52:29;98483.66;;;3.29;100.00
10464;BME280;5279;42.048;24.638;2022-12-29T03:55:03;98498.06;;;3.38;100.00
10464;BME280;5279;42.048;24.638;2022-12-29T03:57:44;98494.34;;;3.42;100.00
10464;BME280;5279;42.048;24.638;2022-12-29T04:00:24;98492.81;;;3.38;100.00
10464;BME280;5279;42.048;24.638;2022-12-29T04:02:56;98493.59;;;3.40;100.00
10464;BME280;5279;42.048;24.638;2022-12-29T04:05:29;98517.50;;;3.34;100.00
10464;BME280;5279;42.048;24.638;2022-12-29T04:07:57;98501.63;;;3.37;100.00
10464;BME280;5279;42.048;24.638;2022-12-29T04:10:26;98512.94;;;3.37;100.00
10464;BME280;5279;42.048;24.638;2022-12-29T04:12:55;98501.31;;;3.43;100.00
10464;BME280;5279;42.048;24.638;2022-12-29T04:15:23;98501.31;;;3.08;100.00
10464;BME280;5279;42.048;24.638;2022-12-29T04:17:52;98513.56;;;3.25;100.00
10464;BME280;5279;42.048;24.638;2022-12-29T04:20:21;98514.06;;;3.31;100.00
10464;BME280;5279;42.048;24.638;2022-12-29T04:23:08;98513.25;;;3.31;100.00
10464;BME280;5279;42.048;24.638;2022-12-29T04:25:36;98511.94;;;3.40;100.00
10464;BME280;5279;42.048;24.638;2022-12-29T04:28:04;98525.78;;;3.42;100.00
10464;BME280;5279;42.048;24.638;2022-12-29T04:30:33;98523.44;;;3.37;100.00
10464;BME280;5279;42.048;24.638;2022-12-29T04:33:02;98529.78;;;3.31;100.00
10464;BME280;5279;42.048;24.638;2022-12-29T04:35:31;98531.44;;;3.34;100.00
10464;BME280;5279;42.048;24.638;2022-12-29T04:37:59;98533.06;;;3.37;100.00
10464;BME280;5279;42.048;24.638;2022-12-29T04:40:29;98537.97;;;3.43;100.00
10464;BME280;5279;42.048;24.638;2022-12-29T04:42:58;98541.19;;;3.48;100.00
10464;BME280;5279;42.048;24.638;2022-12-29T04:45:27;98540.13;;;3.52;100.00
10464;BME280;5279;42.048;24.638;2022-12-29T04:47:56;98540.56;;;3.60;100.00
10464;BME280;5279;42.048;24.638;2022-12-29T04:50:24;98551.22;;;3.57;100.00
10464;BME280;5279;42.048;24.638;2022-12-29T04:52:53;98548.97;;;3.66;100.00
10464;BME280;5279;42.048;24.638;2022-12-29T04:55:20;98549.19;;;3.62;100.00
10464;BME280;5279;42.048;24.638;2022-12-29T04:57:49;98545.97;;;3.57;100.00
10464;BME280;5279;42.048;24.638;2022-12-29T05:00:17;98556.59;;;3.54;100.00
10464;BME280;5279;42.048;24.638;2022-12-29T05:02:46;98550.91;;;3.28;100.00
10464;BME280;5279;42.048;24.638;2022-12-29T05:05:21;98556.63;;;3.37;100.00
10464;BME280;5279;42.048;24.638;2022-12-29T05:08:07;98557.44;;;3.20;100.00
10464;BME280;5279;42.048;24.638;2022-12-29T05:10:50;98551.66;;;3.13;100.00
10464;BME280;5279;42.048;24.638;2022-12-29T05:13:35;98552.16;;;3.21;100.00
10464;BME280;5279;42.048;24.638;2022-12-29T05:16:14;98557.84;;;3.29;100.00
10464;BME280;5279;42.048;24.638;2022-12-29T05:18:50;98545.59;;;3.30;100.00
10464;BME280;5279;42.048;24.638;2022-12-29T05:21:19;98548.91;;;3.34;100.00
10464;BME280;5279;42.048;24.638;2022-12-29T05:23:46;98550.28;;;3.06;100.00
10464;BME280;5279;42.048;24.638;2022-12-29T05:26:14;98549.88;;;2.97;100.00
10464;BME280;5279;42.048;24.638;2022-12-29T05:28:44;98545.50;;;2.97;100.00
10464;BME280;5279;42.048;24.638;2022-12-29T05:31:13;98534.66;;;2.69;100.00
10464;BME280;5279;42.048;24.638;2022-12-29T05:33:41;98539.78;;;2.89;100.00
10464;BME280;5279;42.048;24.638;2022-12-29T05:36:12;98545.22;;;3.03;100.00
10464;BME280;5279;42.048;24.638;2022-12-29T05:38:40;98526.53;;;2.92;100.00
10464;BME280;5279;42.048;24.638;2022-12-29T05:41:08;98531.03;;;3.07;100.00
10464;BME280;5279;42.048;24.638;2022-12-29T05:43:40;98538.56;;;3.13;100.00
10464;BME280;5279;42.048;24.638;2022-12-29T05:46:10;98530.03;;;3.10;100.00
10464;BME280;5279;42.048;24.638;2022-12-29T05:48:39;98522.94;;;3.12;100.00
10464;BME280;5279;42.048;24.638;2022-12-29T05:51:07;98523.50;;;3.18;100.00
10464;BME280;5279;42.048;24.638;2022-12-29T05:53:34;98526.13;;;3.18;100.00
10464;BME280;5279;42.048;24.638;2022-12-29T05:56:02;98529.13;;;3.28;100.00
10464;BME280;5279;42.048;24.638;2022-12-29T05:58:30;98524.56;;;3.31;100.00
10464;BME280;5279;42.048;24.638;2022-12-29T06:00:59;98531.19;;;3.39;100.00
10464;BME280;5279;42.048;24.638;2022-12-29T06:03:29;98526.56;;;3.44;100.00
10464;BME280;5279;42.048;24.638;2022-12-29T06:05:58;98524.78;;;3.44;100.00
10464;BME280;5279;42.048;24.638;2022-12-29T06:08:27;98533.13;;;3.52;100.00
10464;BME280;5279;42.048;24.638;2022-12-29T06:10:55;98537.50;;;3.52;100.00
10464;BME280;5279;42.048;24.638;2022-12-29T06:13:24;98538.84;;;3.43;100.00
10464;BME280;5279;42.048;24.638;2022-12-29T06:15:53;98533.19;;;3.51;100.00
10464;BME280;5279;42.048;24.638;2022-12-29T06:18:20;98535.81;;;3.51;100.00
10464;BME280;5279;42.048;24.638;2022-12-29T06:20:49;98532.97;;;3.55;100.00
10464;BME280;5279;42.048;24.638;2022-12-29T06:23:20;98534.25;;;3.64;100.00
10464;BME280;5279;42.048;24.638;2022-12-29T06:26:01;98535.19;;;3.63;100.00
10464;BME280;5279;42.048;24.638;2022-12-29T06:28:41;98555.06;;;3.50;100.00
10464;BME280;5279;42.048;24.638;2022-12-29T06:31:21;98534.72;;;3.38;100.00
10464;BME280;5279;42.048;24.638;2022-12-29T06:33:59;98535.03;;;3.31;100.00
10464;BME280;5279;42.048;24.638;2022-12-29T06:36:33;98553.06;;;3.38;100.00
10464;BME280;5279;42.048;24.638;2022-12-29T06:39:01;98554.91;;;3.18;100.00
10464;BME280;5279;42.048;24.638;2022-12-29T06:41:30;98554.59;;;3.07;100.00
10464;BME280;5279;42.048;24.638;2022-12-29T06:43:59;98558.44;;;3.17;100.00
10464;BME280;5279;42.048;24.638;2022-12-29T06:46:28;98565.38;;;3.53;100.00
10464;BME280;5279;42.048;24.638;2022-12-29T06:48:56;98575.69;;;3.90;100.00
10464;BME280;5279;42.048;24.638;2022-12-29T06:51:25;98583.66;;;4.21;100.00
10464;BME280;5279;42.048;24.638;2022-12-29T06:54:10;98578.84;;;4.29;100.00
10464;BME280;5279;42.048;24.638;2022-12-29T06:56:54;98592.91;;;4.60;100.00
10464;BME280;5279;42.048;24.638;2022-12-29T06:59:32;98584.22;;;4.90;100.00
10464;BME280;5279;42.048;24.638;2022-12-29T07:02:12;98599.50;;;5.29;100.00
10464;BME280;5279;42.048;24.638;2022-12-29T07:04:46;98583.47;;;5.64;100.00
10464;BME280;5279;42.048;24.638;2022-12-29T07:07:23;98575.09;;;5.87;100.00
10464;BME280;5279;42.048;24.638;2022-12-29T07:09:58;98584.13;;;6.11;100.00
10464;BME280;5279;42.048;24.638;2022-12-29T07:12:29;98586.22;;;6.34;100.00
10464;BME280;5279;42.048;24.638;2022-12-29T07:15:03;98563.44;;;6.62;100.00
10464;BME280;5279;42.048;24.638;2022-12-29T07:17:40;98585.94;;;6.94;99.39
10464;BME280;5279;42.048;24.638;2022-12-29T07:20:12;98601.16;;;7.03;97.84
10464;BME280;5279;42.048;24.638;2022-12-29T07:22:40;98586.00;;;7.06;100.00
10464;BME280;5279;42.048;24.638;2022-12-29T07:25:10;98586.16;;;7.44;100.00
10464;BME280;5279;42.048;24.638;2022-12-29T07:27:38;98582.53;;;7.85;96.28
10464;BME280;5279;42.048;24.638;2022-12-29T07:30:08;98583.63;;;8.20;88.35
10464;BME280;5279;42.048;24.638;2022-12-29T07:32:36;98587.75;;;8.49;86.15
10464;BME280;5279;42.048;24.638;2022-12-29T07:35:07;98581.75;;;8.47;83.09
10464;BME280;5279;42.048;24.638;2022-12-29T07:37:37;98590.13;;;8.77;83.77
10464;BME280;5279;42.048;24.638;2022-12-29T07:40:11;98580.72;;;8.73;82.47
10464;BME280;5279;42.048;24.638;2022-12-29T07:42:41;98577.84;;;8.89;79.93
10464;BME280;5279;42.048;24.638;2022-12-29T07:45:13;98570.97;;;8.87;78.94
10464;BME280;5279;42.048;24.638;2022-12-29T07:47:48;98575.34;;;8.75;83.53
10464;BME280;5279;42.048;24.638;2022-12-29T07:50:18;98575.38;;;8.99;81.89
10464;BME280;5279;42.048;24.638;2022-12-29T07:52:48;98579.78;;;9.11;79.11
10464;BME280;5279;42.048;24.638;2022-12-29T07:55:18;98577.53;;;9.41;78.27
10464;BME280;5279;42.048;24.638;2022-12-29T07:57:46;98578.84;;;9.70;78.52
10464;BME280;5279;42.048;24.638;2022-12-29T08:00:15;98564.97;;;10.13;77.91
10464;BME280;5279;42.048;24.638;2022-12-29T08:02:43;98576.84;;;10.53;73.41
10464;BME280;5279;42.048;24.638;2022-12-29T08:05:11;98571.06;;;10.70;70.01
10464;BME280;5279;42.048;24.638;2022-12-29T08:07:42;98576.81;;;10.97;69.03
10464;BME280;5279;42.048;24.638;2022-12-29T08:10:11;98580.72;;;11.36;67.76
10464;BME280;5279;42.048;24.638;2022-12-29T08:12:42;98574.31;;;11.71;65.66
10464;BME280;5279;42.048;24.638;2022-12-29T08:15:11;98586.53;;;11.94;63.77
10464;BME280;5279;42.048;24.638;2022-12-29T08:17:39;98573.75;;;12.09;63.66
10464;BME280;5279;42.048;24.638;2022-12-29T08:20:10;98565.81;;;12.39;62.72
10464;BME280;5279;42.048;24.638;2022-12-29T08:22:37;98575.22;;;12.73;60.96
10464;BME280;5279;42.048;24.638;2022-12-29T08:25:06;98580.47;;;12.94;59.96
10464;BME280;5279;42.048;24.638;2022-12-29T08:27:35;98572.47;;;12.94;60.37
10464;BME280;5279;42.048;24.638;2022-12-29T08:30:06;98570.47;;;12.86;58.72
10464;BME280;5279;42.048;24.638;2022-12-29T08:32:34;98571.72;;;13.12;58.86
10464;BME280;5279;42.048;24.638;2022-12-29T08:35:02;98566.53;;;13.21;57.53
10464;BME280;5279;42.048;24.638;2022-12-29T08:37:34;98557.34;;;13.34;56.72
10464;BME280;5279;42.048;24.638;2022-12-29T08:40:06;98558.75;;;13.67;55.18
10464;BME280;5279;42.048;24.638;2022-12-29T08:42:36;98553.22;;;14.07;54.24
10464;BME280;5279;42.048;24.638;2022-12-29T08:45:12;98544.75;;;14.31;53.71
10464;BME280;5279;42.048;24.638;2022-12-29T08:47:44;98549.09;;;14.78;52.35
10464;BME280;5279;42.048;24.638;2022-12-29T08:50:14;98541.19;;;15.13;51.14
10464;BME280;5279;42.048;24.638;2022-12-29T08:52:45;98555.72;;;15.81;49.31
10464;BME280;5279;42.048;24.638;2022-12-29T08:55:13;98549.53;;;15.81;48.76
10464;BME280;5279;42.048;24.638;2022-12-29T08:57:41;98546.59;;;16.35;48.04
10464;BME280;5279;42.048;24.638;2022-12-29T09:00:12;98556.03;;;17.07;46.23
10464;BME280;5279;42.048;24.638;2022-12-29T09:02:40;98533.09;;;17.87;44.25
10464;BME280;5279;42.048;24.638;2022-12-29T09:05:09;98526.28;;;18.39;42.99
10464;BME280;5279;42.048;24.638;2022-12-29T09:07:37;98518.25;;;18.39;42.20
10464;BME280;5279;42.048;24.638;2022-12-29T09:10:07;98518.66;;;18.83;40.71
10464;BME280;5279;42.048;24.638;2022-12-29T09:12:35;98517.41;;;18.94;41.29
10464;BME280;5279;42.048;24.638;2022-12-29T09:15:04;98510.78;;;19.43;40.34
10464;BME280;5279;42.048;24.638;2022-12-29T09:17:35;98503.94;;;19.63;39.01
10464;BME280;5279;42.048;24.638;2022-12-29T09:20:09;98499.97;;;19.97;38.95
10464;BME280;5279;42.048;24.638;2022-12-29T09:22:38;98490.81;;;20.06;38.10
10464;BME280;5279;42.048;24.638;2022-12-29T09:25:08;98504.22;;;20.43;37.21
10464;BME280;5279;42.048;24.638;2022-12-29T09:27:39;98496.88;;;20.81;36.45
10464;BME280;5279;42.048;24.638;2022-12-29T09:30:09;98493.50;;;21.23;35.80
10464;BME280;5279;42.048;24.638;2022-12-29T09:32:42;98471.19;;;21.50;35.40
10464;BME280;5279;42.048;24.638;2022-12-29T09:35:15;98478.88;;;21.96;34.72
10464;BME280;5279;42.048;24.638;2022-12-29T09:37:47;98472.25;;;21.98;34.26
10464;BME280;5279;42.048;24.638;2022-12-29T09:40:24;98460.78;;;22.17;33.90
10464;BME280;5279;42.048;24.638;2022-12-29T09:43:20;98465.44;;;22.64;33.80
10464;BME280;5279;42.048;24.638;2022-12-29T09:45:56;98470.59;;;22.59;32.65
10464;BME280;5279;42.048;24.638;2022-12-29T09:48:30;98470.34;;;22.82;32.44
10464;BME280;5279;42.048;24.638;2022-12-29T09:51:02;98469.16;;;22.98;32.20
10464;BME280;5279;42.048;24.638;2022-12-29T09:53:35;98453.78;;;23.05;31.50
10464;BME280;5279;42.048;24.638;2022-12-29T09:56:07;98450.63;;;23.55;31.37
10464;BME280;5279;42.048;24.638;2022-12-29T09:58:41;98438.34;;;23.79;30.50
10464;BME280;5279;42.048;24.638;2022-12-29T10:01:21;98448.47;;;23.37;31.61
10464;BME280;5279;42.048;24.638;2022-12-29T10:03:56;98440.03;;;23.73;30.88
10464;BME280;5279;42.048;24.638;2022-12-29T10:06:50;98438.97;;;23.55;30.78
10464;BME280;5279;42.048;24.638;2022-12-29T10:09:24;98448.31;;;23.65;30.62
10464;BME280;5279;42.048;24.638;2022-12-29T10:12:10;98439.38;;;23.84;30.19
10464;BME280;5279;42.048;24.638;2022-12-29T10:14:55;98429.38;;;24.31;29.70
10464;BME280;5279;42.048;24.638;2022-12-29T10:17:38;98423.13;;;24.37;29.65
10464;BME280;5279;42.048;24.638;2022-12-29T10:20:24;98415.81;;;24.05;29.80
10464;BME280;5279;42.048;24.638;2022-12-29T10:23:11;98423.19;;;24.81;29.06
10464;BME280;5279;42.048;24.638;2022-12-29T10:25:47;98414.84;;;24.89;28.66
10464;BME280;5279;42.048;24.638;2022-12-29T10:28:20;98406.41;;;25.35;27.73
10464;BME280;5279;42.048;24.638;2022-12-29T10:30:50;98409.22;;;25.53;27.59
10464;BME280;5279;42.048;24.638;2022-12-29T10:33:22;98401.19;;;25.02;28.49
10464;BME280;5279;42.048;24.638;2022-12-29T10:35:53;98395.38;;;25.68;27.71
10464;BME280;5279;42.048;24.638;2022-12-29T10:38:25;98397.69;;;25.89;27.31
10464;BME280;5279;42.048;24.638;2022-12-29T10:41:08;98399.38;;;25.28;27.93
10464;BME280;5279;42.048;24.638;2022-12-29T10:43:44;98394.97;;;25.65;26.97
10464;BME280;5279;42.048;24.638;2022-12-29T10:46:17;98398.16;;;26.04;26.94
10464;BME280;5279;42.048;24.638;2022-12-29T10:48:47;98405.59;;;26.16;26.62
10464;BME280;5279;42.048;24.638;2022-12-29T10:51:22;98387.94;;;26.25;26.61
10464;BME280;5279;42.048;24.638;2022-12-29T10:53:53;98414.69;;;26.03;26.64
10464;BME280;5279;42.048;24.638;2022-12-29T10:56:31;98383.81;;;26.58;26.14
10464;BME280;5279;42.048;24.638;2022-12-29T10:59:10;98392.94;;;26.82;25.62
10464;BME280;5279;42.048;24.638;2022-12-29T11:01:56;98390.47;;;27.10;25.63
10464;BME280;5279;42.048;24.638;2022-12-29T11:04:37;98378.22;;;27.20;25.23
10464;BME280;5279;42.048;24.638;2022-12-29T11:07:12;98384.88;;;27.24;25.47
10464;BME280;5279;42.048;24.638;2022-12-29T11:09:45;98375.66;;;26.58;25.79
10464;BME280;5279;42.048;24.638;2022-12-29T11:12:23;98379.16;;;26.04;26.33
10464;BME280;5279;42.048;24.638;2022-12-29T11:15:11;98369.63;;;27.04;25.51
10464;BME280;5279;42.048;24.638;2022-12-29T11:17:45;98368.47;;;26.82;25.56
10464;BME280;5279;42.048;24.638;2022-12-29T11:20:31;98366.31;;;27.02;25.68
10464;BME280;5279;42.048;24.638;2022-12-29T11:23:03;98372.78;;;27.61;24.51
10464;BME280;5279;42.048;24.638;2022-12-29T11:25:32;98367.47;;;27.36;25.30
10464;BME280;5279;42.048;24.638;2022-12-29T11:28:02;98364.91;;;27.41;25.15
10464;BME280;5279;42.048;24.638;2022-12-29T11:30:32;98364.50;;;26.96;25.35
10464;BME280;5279;42.048;24.638;2022-12-29T11:33:03;98363.09;;;27.24;24.86
10464;BME280;5279;42.048;24.638;2022-12-29T11:35:34;98357.75;;;27.70;24.86
10464;BME280;5279;42.048;24.638;2022-12-29T11:38:05;98342.97;;;26.95;25.58
10464;BME280;5279;42.048;24.638;2022-12-29T11:40:39;98352.41;;;27.52;24.84
10464;BME280;5279;42.048;24.638;2022-12-29T11:43:13;98336.94;;;27.87;24.14
10464;BME280;5279;42.048;24.638;2022-12-29T11:45:46;98355.25;;;28.03;24.20
10464;BME280;5279;42.048;24.638;2022-12-29T11:48:18;98350.72;;;28.55;23.61
10464;BME280;5279;42.048;24.638;2022-12-29T11:50:51;98355.91;;;28.80;23.40
10464;BME280;5279;42.048;24.638;2022-12-29T11:53:24;98340.16;;;28.59;23.76
10464;BME280;5279;42.048;24.638;2022-12-29T11:55:54;98331.22;;;29.03;23.21
10464;BME280;5279;42.048;24.638;2022-12-29T11:58:28;98339.53;;;28.80;23.41
10464;BME280;5279;42.048;24.638;2022-12-29T12:01:01;98331.00;;;29.33;22.70
10464;BME280;5279;42.048;24.638;2022-12-29T12:03:32;98324.81;;;29.88;22.26
10464;BME280;5279;42.048;24.638;2022-12-29T12:06:03;98333.91;;;29.93;21.91
10464;BME280;5279;42.048;24.638;2022-12-29T12:08:35;98312.72;;;29.84;21.94
10464;BME280;5279;42.048;24.638;2022-12-29T12:11:08;98321.03;;;29.77;22.38
10464;BME280;5279;42.048;24.638;2022-12-29T12:13:41;98324.03;;;29.59;22.05
10464;BME280;5279;42.048;24.638;2022-12-29T12:16:15;98313.13;;;29.59;22.38
10464;BME280;5279;42.048;24.638;2022-12-29T12:18:48;98303.84;;;29.93;22.03
10464;BME280;5279;42.048;24.638;2022-12-29T12:21:23;98313.25;;;30.02;21.81
10464;BME280;5279;42.048;24.638;2022-12-29T12:24:20;98296.91;;;29.36;22.36
10464;BME280;5279;42.048;24.638;2022-12-29T12:26:56;98310.09;;;30.10;22.05
10464;BME280;5279;42.048;24.638;2022-12-29T12:29:34;98309.47;;;30.25;21.17
10464;BME280;5279;42.048;24.638;2022-12-29T12:32:11;98300.22;;;29.09;22.26
10464;BME280;5279;42.048;24.638;2022-12-29T12:34:43;98289.59;;;29.58;22.04
10464;BME280;5279;42.048;24.638;2022-12-29T12:37:28;98298.94;;;29.12;22.52
10464;BME280;5279;42.048;24.638;2022-12-29T12:40:30;98290.13;;;28.65;22.76
10464;BME280;5279;42.048;24.638;2022-12-29T12:43:15;98298.47;;;29.03;22.56
10464;BME280;5279;42.048;24.638;2022-12-29T12:45:52;98305.66;;;28.64;22.99
10464;BME280;5279;42.048;24.638;2022-12-29T12:48:43;98294.19;;;29.07;22.54
10464;BME280;5279;42.048;24.638;2022-12-29T12:51:22;98299.16;;;29.10;22.93
10464;BME280;5279;42.048;24.638;2022-12-29T12:54:01;98302.44;;;29.24;22.45
10464;BME280;5279;42.048;24.638;2022-12-29T12:56:51;98304.44;;;29.45;22.16
10464;BME280;5279;42.048;24.638;2022-12-29T12:59:44;98300.13;;;29.33;22.18
10464;BME280;5279;42.048;24.638;2022-12-29T13:02:32;98298.94;;;29.12;22.28
10464;BME280;5279;42.048;24.638;2022-12-29T13:08:23;98307.69;;;28.46;23.23
10464;BME280;5279;42.048;24.638;2022-12-29T13:11:04;98291.00;;;28.82;22.76
10464;BME280;5279;42.048;24.638;2022-12-29T13:13:56;98299.03;;;28.89;23.07
10464;BME280;5279;42.048;24.638;2022-12-29T13:16:33;98305.31;;;28.49;23.17
10464;BME280;5279;42.048;24.638;2022-12-29T13:19:10;98302.47;;;27.81;24.10
10464;BME280;5279;42.048;24.638;2022-12-29T13:21:58;98309.78;;;27.57;24.07
10464;BME280;5279;42.048;24.638;2022-12-29T13:24:39;98297.81;;;27.70;23.98
10464;BME280;5279;42.048;24.638;2022-12-29T13:27:16;98305.13;;;27.35;24.52
10464;BME280;5279;42.048;24.638;2022-12-29T13:29:55;98291.25;;;27.25;24.28
10464;BME280;5279;42.048;24.638;2022-12-29T13:32:36;98295.38;;;27.15;24.66
10464;BME280;5279;42.048;24.638;2022-12-29T13:35:28;98295.25;;;26.33;25.46
10464;BME280;5279;42.048;24.638;2022-12-29T13:38:07;98302.41;;;25.41;26.72
10464;BME280;5279;42.048;24.638;2022-12-29T13:40:41;98303.78;;;26.18;25.82
10464;BME280;5279;42.048;24.638;2022-12-29T13:43:14;98286.72;;;25.50;26.68
10464;BME280;5279;42.048;24.638;2022-12-29T13:45:48;98299.59;;;25.79;26.64